Airport View

Enter AWOS ICAO identifier for current METAR.

ex. KFNL

K33V 050455Z AUTO 10005KT 10SM CLR 17/05 A3033 RMK AO1

5 Aug 2020 14:06

Frequency: 118.625

Phone: 970-723-4513

Other Area AWOS: KSBS - KC07 - K20V - KGNB

TAF KLAR 051127Z 0512/0612 16008KT P6SM FEW120 FM052000 12012KT P6SM VCTS SCT080CB OVC250 FM060100 14012KT P6SM OVC250